Time;durP1;ratioP1;P1;durP2;ratioP2;P2;SDS_P1;SDS_P2;PMS_P1;PMS_P2;Temp;Humidity;BMP_temperature;BMP_pressure;BME280_temperature;BME280_humidity;BME280_pressure;Samples;Min_cycle;Max_cycle;Signal;HPM_P1;HPM_P2
2023/04/19 00:00:27;;;;;;;;;;;;;;;30.31;25.01;100201.75;5096385;28;1061;-26
2023/04/19 00:02:53;;;;;;;;;;;;;;;30.48;24.54;100203.13;5096500;28;1003;-30
2023/04/19 00:05:21;;;;;;;;;;;;;;;28.94;26.60;100194.22;5098705;28;1103;-28
2023/04/19 00:07:46;;;;;;;;;;;;;;;28.83;27.10;100184.84;5095977;28;1229;-30
2023/04/19 00:10:12;;;;;;;;;;;;;;;30.36;24.98;100195.69;5095744;28;1142;-31
2023/04/19 00:12:37;;;;;;;;;;;;;;;29.94;25.45;100193.38;5095894;28;1913;-28
2023/04/19 00:15:03;;;;;;;;;;;;;;;28.83;27.10;100187.53;5099733;28;1106;-29
2023/04/19 00:17:29;;;;;;;;;;;;;;;29.67;26.15;100190.78;5087216;28;1062;-30
2023/04/19 00:19:55;;;;;;;;;;;;;;;30.53;24.75;100176.97;5104288;28;909;-31
2023/04/19 00:22:21;;;;;;;;;;;;;;;29.33;26.09;100180.84;5099923;28;1006;-32
2023/04/19 00:24:46;;;;;;;;;;;;;;;28.68;27.13;100173.38;5099728;28;1133;-27
2023/04/19 00:27:12;;;;;;;;;;;;;;;30.10;25.55;100174.94;5099456;28;1014;-29
2023/04/19 00:29:38;;;;;;;;;;;;;;;30.66;24.76;100170.59;5103100;28;1152;-28
2023/04/19 00:32:04;;;;;;;;;;;;;;;29.02;26.59;100165.28;5081345;28;1974;-28
2023/04/19 00:34:30;;;;;;;;;;;;;;;28.72;27.76;100178.19;5099644;28;1131;-29
2023/04/19 00:36:56;;;;;;;;;;;;;;;30.19;25.45;100168.22;5099358;28;1078;-28
2023/04/19 00:39:22;;;;;;;;;;;;;;;30.66;24.75;100167.91;5099655;28;1019;-29
2023/04/19 00:41:48;;;;;;;;;;;;;;;29.05;26.56;100175.69;5087163;28;1047;-28
2023/04/19 00:44:13;;;;;;;;;;;;;;;28.80;27.07;100173.59;5103985;28;1133;-27
2023/04/19 00:46:39;;;;;;;;;;;;;;;30.28;25.29;100174.25;5081299;28;1158;-29
2023/04/19 00:49:05;;;;;;;;;;;;;;;30.23;25.22;100174.06;5099425;28;904;-29
2023/04/19 00:51:31;;;;;;;;;;;;;;;28.94;26.99;100169.84;5099109;28;1901;-29
2023/04/19 00:53:57;;;;;;;;;;;;;;;29.42;26.60;100169.78;5084973;28;1181;-26
2023/04/19 00:56:22;;;;;;;;;;;;;;;30.35;25.23;100169.59;5081600;28;1046;-27
2023/04/19 00:58:51;;;;;;;;;;;;;;;30.73;24.66;100169.75;5080898;28;1121;-29
2023/04/19 01:01:17;;;;;;;;;;;;;;;29.12;26.29;100170.25;5064402;28;1100;-27
2023/04/19 01:03:43;;;;;;;;;;;;;;;28.98;27.00;100180.28;5080888;28;1471;-30
2023/04/19 01:06:09;;;;;;;;;;;;;;;30.38;25.13;100171.88;5088084;28;1015;-28
2023/04/19 01:08:34;;;;;;;;;;;;;;;29.76;25.54;100180.53;5103056;28;1041;-27
2023/04/19 01:11:00;;;;;;;;;;;;;;;28.83;26.82;100176.72;5080795;28;1968;-30
2023/04/19 01:13:26;;;;;;;;;;;;;;;29.65;26.04;100179.31;5098726;28;1209;-30
2023/04/19 01:15:52;;;;;;;;;;;;;;;30.39;24.89;100175.41;5098932;28;1011;-28
2023/04/19 01:18:19;;;;;;;;;;;;;;;30.65;24.62;100168.97;5086307;28;1154;-31
2023/04/19 01:20:45;;;;;;;;;;;;;;;29.33;26.27;100169.16;5080284;28;1094;-27
2023/04/19 01:23:11;;;;;;;;;;;;;;;28.92;26.66;100162.97;5080521;28;1333;-30
2023/04/19 01:25:37;;;;;;;;;;;;;;;30.18;25.35;100163.81;5080214;28;1189;-29
2023/04/19 01:28:03;;;;;;;;;;;;;;;30.43;24.62;100155.75;5080470;28;1229;-28
2023/04/19 01:30:28;;;;;;;;;;;;;;;29.00;26.95;100154.66;5098145;28;1905;-28
2023/04/19 01:32:54;;;;;;;;;;;;;;;29.33;26.73;100153.75;5098552;28;1006;-28
2023/04/19 01:35:20;;;;;;;;;;;;;;;30.42;25.00;100153.28;5098509;28;1101;-28
2023/04/19 01:37:45;;;;;;;;;;;;;;;29.69;25.77;100148.03;5098479;28;1165;-30
2023/04/19 01:40:11;;;;;;;;;;;;;;;28.93;26.73;100143.81;5098406;28;1075;-30
2023/04/19 01:42:37;;;;;;;;;;;;;;;29.93;25.74;100143.75;5105362;28;1130;-31
2023/04/19 01:45:02;;;;;;;;;;;;;;;30.47;24.95;100142.59;5098341;28;1062;-30
2023/04/19 01:47:28;;;;;;;;;;;;;;;30.75;24.67;100141.31;5098209;28;1006;-28
2023/04/19 01:49:54;;;;;;;;;;;;;;;29.26;26.42;100144.81;5098450;28;1185;-29
2023/04/19 01:52:19;;;;;;;;;;;;;;;28.86;27.28;100134.88;5081860;28;1980;-27
2023/04/19 01:54:46;;;;;;;;;;;;;;;30.40;25.40;100137.22;5090264;28;1221;-29
2023/04/19 01:57:15;;;;;;;;;;;;;;;30.76;24.78;100142.97;5079759;28;1198;-27
2023/04/19 01:59:41;;;;;;;;;;;;;;;29.11;26.66;100134.25;5079568;28;1249;-28
2023/04/19 02:02:07;;;;;;;;;;;;;;;29.18;26.93;100137.75;5079698;28;1078;-29
2023/04/19 02:04:33;;;;;;;;;;;;;;;30.37;25.34;100129.50;5079465;28;1063;-32
2023/04/19 02:06:59;;;;;;;;;;;;;;;30.75;24.77;100140.47;5105683;28;1170;-28
2023/04/19 02:09:27;;;;;;;;;;;;;;;29.18;26.41;100143.16;5097846;28;1122;-31
2023/04/19 02:11:53;;;;;;;;;;;;;;;29.07;27.14;100139.25;5097402;28;1974;-27
2023/04/19 02:14:20;;;;;;;;;;;;;;;30.42;25.25;100139.69;5079371;28;1923;-27
2023/04/19 02:16:45;;;;;;;;;;;;;;;30.76;24.90;100134.81;5079521;28;1195;-27
2023/04/19 02:19:11;;;;;;;;;;;;;;;29.19;26.20;100139.44;5081220;28;1121;-28
2023/04/19 02:21:37;;;;;;;;;;;;;;;29.14;27.02;100135.69;5097096;28;1190;-29
2023/04/19 02:24:03;;;;;;;;;;;;;;;30.35;25.23;100128.06;5097727;28;1037;-27
2023/04/19 02:26:29;;;;;;;;;;;;;;;30.73;24.85;100131.75;5079239;28;1165;-32
2023/04/19 02:28:55;;;;;;;;;;;;;;;29.35;26.08;100129.16;5097567;28;1111;-31
2023/04/19 02:31:20;;;;;;;;;;;;;;;28.80;27.01;100131.13;5105668;28;1917;-27
2023/04/19 02:33:46;;;;;;;;;;;;;;;30.27;25.28;100119.16;5097460;28;1193;-30
2023/04/19 02:36:12;;;;;;;;;;;;;;;30.76;24.70;100128.56;5096627;28;1082;-26
2023/04/19 02:38:37;;;;;;;;;;;;;;;29.14;26.37;100122.16;5097486;28;1126;-30
2023/04/19 02:41:04;;;;;;;;;;;;;;;28.94;27.17;100123.81;5096669;28;1062;-29
2023/04/19 02:43:30;;;;;;;;;;;;;;;30.34;25.18;100116.41;5099642;28;824;-27
2023/04/19 02:45:56;;;;;;;;;;;;;;;30.70;24.94;100126.75;5096989;28;1095;-29
2023/04/19 02:48:21;;;;;;;;;;;;;;;29.46;26.18;100119.56;5097167;28;1094;-27
2023/04/19 02:50:47;;;;;;;;;;;;;;;28.95;27.18;100119.22;5092281;28;1906;-28
2023/04/19 02:53:13;;;;;;;;;;;;;;;30.36;25.49;100119.72;5078850;28;1095;-28
2023/04/19 02:55:39;;;;;;;;;;;;;;;30.53;24.81;100111.03;5088595;28;1210;-28
2023/04/19 02:58:11;;;;;;;;;;;;;;;29.14;26.64;100117.56;5078757;28;1331;-28
2023/04/19 03:00:43;;;;;;;;;;;;;;;29.56;26.30;100105.53;5078761;28;1175;-29
2023/04/19 03:03:13;;;;;;;;;;;;;;;30.56;25.09;100116.00;5104774;28;1212;-29
2023/04/19 03:05:39;;;;;;;;;;;;;;;30.58;24.75;100123.94;5097075;28;1126;-28
2023/04/19 03:08:04;;;;;;;;;;;;;;;29.14;26.59;100125.69;5096537;28;881;-29
2023/04/19 03:10:30;;;;;;;;;;;;;;;29.23;26.88;100117.34;5078470;28;1902;-31
2023/04/19 03:12:56;;;;;;;;;;;;;;;30.49;25.02;100126.09;5096846;28;1131;-29
2023/04/19 03:15:21;;;;;;;;;;;;;;;29.58;25.80;100128.66;5078517;28;1336;-29
2023/04/19 03:17:47;;;;;;;;;;;;;;;29.03;26.68;100123.63;5077964;28;1245;-30
2023/04/19 03:20:13;;;;;;;;;;;;;;;30.09;25.78;100116.31;5077971;28;1183;-33
2023/04/19 03:22:39;;;;;;;;;;;;;;;30.54;25.21;100131.69;5096610;28;1201;-28
2023/04/19 03:25:05;;;;;;;;;;;;;;;29.75;25.57;100125.47;5096443;28;1018;-30
2023/04/19 03:27:32;;;;;;;;;;;;;;;28.99;26.95;100130.50;5078478;28;1273;-29
2023/04/19 03:30:01;;;;;;;;;;;;;;;29.91;26.13;100123.31;5078404;28;1245;-29
2023/04/19 03:32:30;;;;;;;;;;;;;;;30.61;25.03;100121.59;5085236;28;1925;-30
2023/04/19 03:34:56;;;;;;;;;;;;;;;29.15;26.68;100121.09;5077609;28;1891;-29
2023/04/19 03:37:21;;;;;;;;;;;;;;;28.79;27.45;100124.06;5096516;28;1197;-29
2023/04/19 03:39:47;;;;;;;;;;;;;;;30.16;25.72;100117.13;5078510;28;1214;-28
2023/04/19 03:42:17;;;;;;;;;;;;;;;30.58;24.96;100113.06;5104156;28;1034;-25
2023/04/19 03:44:53;;;;;;;;;;;;;;;28.87;26.21;100116.75;5078085;28;1205;-23
2023/04/19 03:47:18;;;;;;;;;;;;;;;26.67;29.05;100103.72;5078966;28;1285;-23
2023/04/19 03:49:47;;;;;;;;;;;;;;;25.63;30.26;100110.13;5081666;28;1356;-24
2023/04/19 03:52:13;;;;;;;;;;;;;;;26.00;29.95;100114.69;5090010;28;1930;-25
2023/04/19 03:54:39;;;;;;;;;;;;;;;25.91;30.26;100119.34;5084230;28;1359;-26
2023/04/19 03:57:12;;;;;;;;;;;;;;;25.36;32.25;100120.53;5095957;28;2067;-28
2023/04/19 03:59:38;;;;;;;;;;;;;;;26.20;30.07;100120.28;5094683;28;1208;-28
2023/04/19 04:02:05;;;;;;;;;;;;;;;27.30;28.18;100123.66;5112984;28;1178;-28
2023/04/19 04:04:31;;;;;;;;;;;;;;;26.04;30.36;100119.50;5089664;28;1190;-29
2023/04/19 04:06:57;;;;;;;;;;;;;;;25.29;30.98;100125.00;5105319;28;1118;-29
2023/04/19 04:09:22;;;;;;;;;;;;;;;28.03;27.20;100121.47;5108147;28;1074;-27
2023/04/19 04:11:49;;;;;;;;;;;;;;;29.24;25.76;100121.69;5101030;28;1906;-30
2023/04/19 04:14:14;;;;;;;;;;;;;;;29.78;24.99;100125.03;5101248;28;1069;-26
2023/04/19 04:16:40;;;;;;;;;;;;;;;27.24;28.82;100119.06;5105892;28;1126;-26
2023/04/19 04:19:06;;;;;;;;;;;;;;;27.01;29.28;100125.53;5081161;28;1395;-27
2023/04/19 04:21:35;;;;;;;;;;;;;;;29.45;25.72;100128.72;5099939;28;1174;-26
2023/04/19 04:24:03;;;;;;;;;;;;;;;27.37;28.70;100124.53;5100147;28;1010;-29
2023/04/19 04:26:38;;;;;;;;;;;;;;;26.84;29.94;100127.72;5094780;28;1247;-29
2023/04/19 04:29:19;;;;;;;;;;;;;;;29.31;26.31;100127.94;5094353;28;1426;-31
2023/04/19 04:31:45;;;;;;;;;;;;;;;29.78;25.66;100129.66;5094783;28;1906;-26
2023/04/19 04:34:13;;;;;;;;;;;;;;;29.68;25.65;100128.22;5094696;28;1421;-28
2023/04/19 04:36:48;;;;;;;;;;;;;;;27.82;28.69;100123.28;5081516;28;1293;-26
2023/04/19 04:39:14;;;;;;;;;;;;;;;28.76;27.36;100127.16;5082830;28;2020;-29
2023/04/19 04:41:41;;;;;;;;;;;;;;;29.96;25.57;100126.22;5101415;28;1098;-29
2023/04/19 04:44:08;;;;;;;;;;;;;;;28.23;27.56;100128.78;5106141;28;1133;-30
2023/04/19 04:46:36;;;;;;;;;;;;;;;27.86;28.15;100127.25;5101518;28;1165;-26
2023/04/19 04:49:02;;;;;;;;;;;;;;;29.61;26.18;100132.88;5101257;28;1141;-27
2023/04/19 04:51:28;;;;;;;;;;;;;;;30.12;25.59;100135.72;5093356;28;1882;-31
2023/04/19 04:53:55;;;;;;;;;;;;;;;29.60;25.85;100139.31;5096438;28;1256;-22
2023/04/19 04:56:22;;;;;;;;;;;;;;;27.77;28.45;100120.38;5091838;28;1253;-23
2023/04/19 04:58:47;;;;;;;;;;;;;;;28.56;27.79;100138.81;5095454;28;1382;-24
2023/04/19 05:01:22;;;;;;;;;;;;;;;30.14;25.45;100135.50;5098391;28;1263;-24
2023/04/19 05:03:48;;;;;;;;;;;;;;;27.81;28.39;100140.53;5084143;28;1225;-23
2023/04/19 05:06:17;;;;;;;;;;;;;;;27.47;29.44;100129.56;5081746;28;1114;-23
2023/04/19 05:08:43;;;;;;;;;;;;;;;29.72;25.97;100138.63;5092775;28;1261;-22
2023/04/19 05:11:38;;;;;;;;;;;;;;;30.22;25.46;100137.13;5086005;28;1914;-22
2023/04/19 05:14:04;;;;;;;;;;;;;;;29.51;26.09;100141.38;5096688;28;1292;-24
2023/04/19 05:16:31;;;;;;;;;;;;;;;27.71;28.46;100135.50;5082055;28;1217;-22
2023/04/19 05:18:57;;;;;;;;;;;;;;;28.68;27.59;100139.03;5086038;28;1293;-22
2023/04/19 05:21:25;;;;;;;;;;;;;;;30.04;25.55;100135.97;5100432;28;1559;-24
2023/04/19 05:23:52;;;;;;;;;;;;;;;27.99;28.09;100139.97;5080301;28;1456;-22
2023/04/19 05:26:18;;;;;;;;;;;;;;;27.03;29.44;100137.00;5080255;28;1130;-22
2023/04/19 05:28:44;;;;;;;;;;;;;;;29.29;26.63;100139.00;5090306;28;1163;-23
2023/04/19 05:31:19;;;;;;;;;;;;;;;29.84;25.60;100125.22;5099886;28;1914;-23
2023/04/19 05:33:58;;;;;;;;;;;;;;;30.19;24.98;100150.06;5080027;28;1380;-22
2023/04/19 05:36:24;;;;;;;;;;;;;;;28.38;27.30;100144.03;5093041;28;1131;-23
2023/04/19 05:38:51;;;;;;;;;;;;;;;27.20;29.18;100147.47;5092593;28;1564;-23
2023/04/19 05:41:16;;;;;;;;;;;;;;;29.27;26.64;100143.78;5087083;28;1217;-23
2023/04/19 05:43:44;;;;;;;;;;;;;;;28.70;27.06;100142.38;5095689;28;1193;-23
2023/04/19 05:46:10;;;;;;;;;;;;;;;27.12;29.62;100149.31;5099706;28;1479;-24
2023/04/19 05:48:36;;;;;;;;;;;;;;;28.72;27.54;100148.41;5088765;28;1298;-22
2023/04/19 05:51:17;;;;;;;;;;;;;;;29.72;25.94;100154.91;5079655;28;2046;-23
2023/04/19 05:54:13;;;;;;;;;;;;;;;30.13;25.40;100159.06;5088434;27;1204;-22
2023/04/19 05:56:41;;;;;;;;;;;;;;;28.56;27.19;100151.53;5083295;28;1245;-22
2023/04/19 05:59:07;;;;;;;;;;;;;;;27.60;28.70;100153.09;5079658;28;1279;-24
2023/04/19 06:01:34;;;;;;;;;;;;;;;29.23;26.75;100153.34;5098056;28;1363;-23
2023/04/19 06:03:59;;;;;;;;;;;;;;;29.43;26.04;100156.00;5105476;28;1107;-21
2023/04/19 06:06:26;;;;;;;;;;;;;;;28.19;28.04;100154.56;5086760;28;1298;-23
2023/04/19 06:08:52;;;;;;;;;;;;;;;28.65;27.40;100160.25;5100429;28;1103;-26
2023/04/19 06:11:17;;;;;;;;;;;;;;;29.85;25.78;100159.41;5109501;28;1976;-24
2023/04/19 06:13:43;;;;;;;;;;;;;;;30.22;25.26;100159.66;5081033;28;1197;-24
2023/04/19 06:16:09;;;;;;;;;;;;;;;28.69;26.98;100156.97;5079498;28;1130;-22
2023/04/19 06:18:35;;;;;;;;;;;;;;;27.37;29.39;100156.94;5092765;28;1191;-22
2023/04/19 06:21:00;;;;;;;;;;;;;;;29.26;26.92;100161.06;5097432;28;1174;-22
2023/04/19 06:23:26;;;;;;;;;;;;;;;30.16;25.64;100157.81;5097296;28;1210;-22
2023/04/19 06:25:52;;;;;;;;;;;;;;;28.31;27.90;100154.81;5097909;28;1085;-23
2023/04/19 06:28:17;;;;;;;;;;;;;;;27.67;29.12;100160.41;5101397;28;1074;-24
2023/04/19 06:30:43;;;;;;;;;;;;;;;29.75;26.39;100163.44;5106173;28;1909;-24
2023/04/19 06:33:09;;;;;;;;;;;;;;;30.13;25.59;100166.38;5109167;28;1125;-21
2023/04/19 06:35:35;;;;;;;;;;;;;;;29.75;25.57;100162.59;5117128;28;1261;-24
2023/04/19 06:38:01;;;;;;;;;;;;;;;27.78;28.76;100170.66;5102209;28;1221;-22
2023/04/19 06:40:28;;;;;;;;;;;;;;;28.59;27.90;100168.16;5097673;28;1214;-22
2023/04/19 06:42:53;;;;;;;;;;;;;;;29.93;25.97;100178.16;5104645;28;1044;-23
2023/04/19 06:45:19;;;;;;;;;;;;;;;29.80;25.50;100179.03;5101992;28;1292;-21
2023/04/19 06:47:44;;;;;;;;;;;;;;;27.93;28.34;100178.63;5105751;28;1202;-23
2023/04/19 06:50:10;;;;;;;;;;;;;;;28.39;28.25;100180.84;5107079;28;1142;-22
2023/04/19 06:52:36;;;;;;;;;;;;;;;30.03;25.56;100186.66;5101174;28;1913;-22
2023/04/19 06:55:01;;;;;;;;;;;;;;;28.71;27.07;100179.22;5104319;28;1221;-23
2023/04/19 06:57:27;;;;;;;;;;;;;;;27.68;28.68;100178.28;5104820;28;1105;-23
2023/04/19 06:59:53;;;;;;;;;;;;;;;29.38;26.73;100182.09;5104955;28;1209;-23
2023/04/19 07:02:19;;;;;;;;;;;;;;;30.11;25.58;100188.31;5097365;28;1091;-23
2023/04/19 07:04:46;;;;;;;;;;;;;;;29.53;25.83;100181.84;5107667;28;1185;-23
2023/04/19 07:07:11;;;;;;;;;;;;;;;27.62;29.15;100182.63;5101391;28;1289;-23
2023/04/19 07:09:37;;;;;;;;;;;;;;;28.06;28.64;100180.53;5110690;28;1103;-22
2023/04/19 07:12:02;;;;;;;;;;;;;;;29.89;25.72;100193.19;5116172;28;1913;-22
2023/04/19 07:14:28;;;;;;;;;;;;;;;28.57;27.24;100189.22;5096641;28;1083;-22
2023/04/19 07:16:54;;;;;;;;;;;;;;;27.71;28.69;100191.44;5106399;28;1091;-22
2023/04/19 07:19:21;;;;;;;;;;;;;;;29.46;26.42;100200.84;5104525;28;1029;-23
2023/04/19 07:21:47;;;;;;;;;;;;;;;30.09;25.41;100201.25;5102932;28;1117;-22
2023/04/19 07:24:12;;;;;;;;;;;;;;;28.81;26.74;100200.44;5096460;28;1178;-22
2023/04/19 07:26:38;;;;;;;;;;;;;;;27.76;28.42;100202.44;5098426;28;1241;-21
2023/04/19 07:29:03;;;;;;;;;;;;;;;29.23;26.96;100204.00;5113338;28;1429;-22
2023/04/19 07:31:29;;;;;;;;;;;;;;;30.14;25.48;100208.72;5093814;28;1975;-22
2023/04/19 07:33:56;;;;;;;;;;;;;;;28.19;27.82;100203.25;5098148;28;1052;-24
2023/04/19 07:36:21;;;;;;;;;;;;;;;28.12;28.40;100205.94;5103243;28;1538;-22
2023/04/19 07:38:47;;;;;;;;;;;;;;;29.83;25.80;100219.28;5106443;28;1011;-22
2023/04/19 07:41:13;;;;;;;;;;;;;;;30.05;25.49;100218.97;5116848;28;1001;-22
2023/04/19 07:43:38;;;;;;;;;;;;;;;28.27;27.75;100213.03;5104510;28;1049;-22
2023/04/19 07:46:10;;;;;;;;;;;;;;;27.93;28.31;100213.75;5102827;28;842;-22
2023/04/19 07:48:37;;;;;;;;;;;;;;;29.74;25.88;100216.00;5108095;28;1034;-22
2023/04/19 07:51:12;;;;;;;;;;;;;;;29.21;26.36;100217.78;5104066;28;1910;-22
2023/04/19 07:53:38;;;;;;;;;;;;;;;27.92;28.30;100212.09;5103424;28;1119;-22
2023/04/19 07:56:05;;;;;;;;;;;;;;;29.24;26.77;100224.63;5096881;28;1292;-22
2023/04/19 07:58:30;;;;;;;;;;;;;;;29.97;25.79;100221.94;5096333;28;1018;-22
2023/04/19 08:00:56;;;;;;;;;;;;;;;28.02;28.03;100225.25;5105438;28;1022;-21
2023/04/19 08:03:21;;;;;;;;;;;;;;;27.94;28.70;100222.72;5102497;28;1096;-23
2023/04/19 08:05:47;;;;;;;;;;;;;;;29.73;26.03;100235.19;5096245;28;1081;-22
2023/04/19 08:08:12;;;;;;;;;;;;;;;30.08;25.49;100229.41;5104032;28;1100;-23
2023/04/19 08:10:38;;;;;;;;;;;;;;;28.23;28.20;100234.25;5101699;28;1905;-23
2023/04/19 08:13:04;;;;;;;;;;;;;;;27.54;28.95;100221.47;5103298;28;1077;-22
2023/04/19 08:15:30;;;;;;;;;;;;;;;29.61;26.38;100233.16;5099044;28;1061;-22
2023/04/19 08:17:55;;;;;;;;;;;;;;;30.09;25.59;100230.25;5112385;28;1049;-23
2023/04/19 08:20:22;;;;;;;;;;;;;;;28.92;26.74;100238.78;5095846;28;1112;-22
2023/04/19 08:22:47;;;;;;;;;;;;;;;27.62;28.50;100237.50;5095694;28;917;-23
2023/04/19 08:25:13;;;;;;;;;;;;;;;28.96;27.15;100246.25;5106800;28;1034;-22
2023/04/19 08:27:38;;;;;;;;;;;;;;;29.24;26.21;100240.88;5108934;28;1298;-23
2023/04/19 08:30:05;;;;;;;;;;;;;;;27.84;28.17;100239.31;5100657;28;1063;-22
2023/04/19 08:32:31;;;;;;;;;;;;;;;28.41;27.97;100241.00;5116659;28;1913;-22
2023/04/19 08:34:56;;;;;;;;;;;;;;;29.76;25.62;100232.84;5100238;28;1137;-23
2023/04/19 08:37:22;;;;;;;;;;;;;;;30.15;25.15;100238.34;5117678;28;1528;-22
2023/04/19 08:39:47;;;;;;;;;;;;;;;29.12;25.88;100243.38;5109240;28;1074;-22
2023/04/19 08:42:13;;;;;;;;;;;;;;;28.33;27.05;100242.00;5106919;28;1017;-23
2023/04/19 08:44:38;;;;;;;;;;;;;;;29.30;26.40;100245.44;5115494;27;1161;-22
2023/04/19 08:47:04;;;;;;;;;;;;;;;29.97;24.93;100244.47;5099959;28;949;-22
2023/04/19 08:49:30;;;;;;;;;;;;;;;28.47;26.95;100238.31;5113270;28;1450;-24
2023/04/19 08:51:56;;;;;;;;;;;;;;;28.93;26.59;100237.72;5092483;28;1910;-22
2023/04/19 08:54:22;;;;;;;;;;;;;;;30.02;25.07;100246.53;5119886;28;1031;-22
2023/04/19 08:56:47;;;;;;;;;;;;;;;30.35;24.50;100237.44;5100998;28;1281;-22
2023/04/19 08:59:13;;;;;;;;;;;;;;;28.21;27.40;100229.03;5105814;28;993;-22
2023/04/19 09:01:39;;;;;;;;;;;;;;;27.89;28.03;100236.00;5097858;28;1170;-25
2023/04/19 09:04:05;;;;;;;;;;;;;;;29.82;25.48;100240.16;5109841;28;1233;-22
2023/04/19 09:06:34;;;;;;;;;;;;;;;29.14;25.91;100242.16;5105904;28;1259;-23
2023/04/19 09:09:30;;;;;;;;;;;;;;;28.30;27.01;100240.53;5119518;28;1034;-24
2023/04/19 09:11:56;;;;;;;;;;;;;;;28.45;26.75;100239.53;5099781;28;1947;-23
2023/04/19 09:14:22;;;;;;;;;;;;;;;27.71;28.52;100243.59;5100158;28;1242;-22
2023/04/19 09:16:48;;;;;;;;;;;;;;;28.13;27.95;100239.22;5113200;28;1030;-22
2023/04/19 09:19:16;;;;;;;;;;;;;;;29.46;25.96;100239.59;5111750;28;1170;-23
2023/04/19 09:21:42;;;;;;;;;;;;;;;29.80;25.57;100246.81;5114627;28;1209;-22
2023/04/19 09:24:08;;;;;;;;;;;;;;;30.15;25.19;100246.47;5109561;28;998;-22
2023/04/19 09:26:33;;;;;;;;;;;;;;;28.86;27.63;100243.16;5107326;28;1102;-28
2023/04/19 09:29:01;;;;;;;;;;;;;;;27.94;28.18;100239.78;5107171;28;1194;-22
2023/04/19 09:31:27;;;;;;;;;;;;;;;27.05;29.08;100237.53;5105773;28;1902;-23
2023/04/19 09:33:53;;;;;;;;;;;;;;;26.88;29.61;100239.63;5098309;28;1047;-22
2023/04/19 09:36:27;;;;;;;;;;;;;;;27.85;28.91;100236.41;5115154;28;1073;-21
2023/04/19 09:38:53;;;;;;;;;;;;;;;28.82;27.08;100234.63;5107476;28;1087;-19
2023/04/19 09:41:19;;;;;;;;;;;;;;;28.95;26.25;100239.19;5104376;28;1076;-20
2023/04/19 09:43:45;;;;;;;;;;;;;;;28.52;26.78;100236.84;5118952;28;1017;-19
2023/04/19 09:46:30;;;;;;;;;;;;;;;29.15;26.36;100237.53;5106470;28;1146;-21
2023/04/19 09:49:00;;;;;;;;;;;;;;;29.18;25.91;100248.78;5116716;28;1186;-22
2023/04/19 09:51:35;;;;;;;;;;;;;;;29.83;25.14;100243.69;5090784;28;1960;-24
2023/04/19 09:54:00;;;;;;;;;;;;;;;28.81;26.63;100249.16;5083970;28;1190;-22
2023/04/19 09:56:26;;;;;;;;;;;;;;;28.10;27.77;100240.44;5086557;28;1110;-23
2023/04/19 09:58:52;;;;;;;;;;;;;;;29.42;26.29;100243.78;5099916;28;1146;-23
2023/04/19 10:01:17;;;;;;;;;;;;;;;28.72;26.65;100239.59;5080446;28;1217;-23
2023/04/19 10:03:43;;;;;;;;;;;;;;;28.14;28.24;100244.44;5097968;28;1054;-23
2023/04/19 10:06:09;;;;;;;;;;;;;;;29.51;26.26;100240.84;5100357;28;1284;-23
2023/04/19 10:08:35;;;;;;;;;;;;;;;30.16;25.37;100250.03;5097790;28;1099;-22
2023/04/19 10:11:01;;;;;;;;;;;;;;;30.10;24.95;100245.44;5095084;28;1975;-23
2023/04/19 10:13:27;;;;;;;;;;;;;;;28.69;26.68;100248.13;5117815;28;1049;-23
2023/04/19 10:15:52;;;;;;;;;;;;;;;29.01;26.68;100239.44;5099893;28;1104;-25
2023/04/19 10:18:18;;;;;;;;;;;;;;;28.35;27.31;100237.22;5090915;28;1134;-24
2023/04/19 10:20:50;;;;;;;;;;;;;;;27.94;28.02;100238.94;5096068;28;1026;-23
2023/04/19 10:23:15;;;;;;;;;;;;;;;29.41;26.48;100233.97;5116424;28;936;-23
2023/04/19 10:25:44;;;;;;;;;;;;;;;29.97;25.82;100244.47;5099989;28;1324;-25
2023/04/19 10:28:10;;;;;;;;;;;;;;;30.28;25.17;100236.66;5102203;28;1233;-22
2023/04/19 10:30:35;;;;;;;;;;;;;;;28.92;26.17;100234.19;5116189;28;1264;-22
2023/04/19 10:33:03;;;;;;;;;;;;;;;28.64;26.83;100228.97;5079246;28;1906;-22
2023/04/19 10:35:36;;;;;;;;;;;;;;;28.51;27.03;100236.00;5105852;28;906;-23
2023/04/19 10:38:05;;;;;;;;;;;;;;;28.08;28.05;100237.94;5116849;28;1085;-23
2023/04/19 10:40:49;;;;;;;;;;;;;;;28.96;27.23;100235.44;5107771;28;1078;-23
2023/04/19 10:43:16;;;;;;;;;;;;;;;29.67;26.19;100236.84;5102881;28;1003;-23
2023/04/19 10:45:42;;;;;;;;;;;;;;;29.99;25.73;100239.69;5104524;28;1115;-26
2023/04/19 10:48:31;;;;;;;;;;;;;;;29.60;25.57;100236.03;5103180;28;1546;-22
2023/04/19 10:51:04;;;;;;;;;;;;;;;28.69;26.43;100240.00;5100249;28;1969;-24
2023/04/19 10:53:45;;;;;;;;;;;;;;;28.47;27.77;100242.88;5116831;28;1033;-24
2023/04/19 10:56:10;;;;;;;;;;;;;;;28.11;27.56;100236.72;5108424;28;1139;-27
2023/04/19 11:01:43;;;;;;;;;;;;;;;29.63;26.18;100243.78;5075278;28;1112;-23
2023/04/19 11:04:09;;;;;;;;;;;;;;;30.09;25.58;100244.63;5107535;28;1087;-23
2023/04/19 11:07:00;;;;;;;;;;;;;;;29.28;26.30;100245.66;5100248;28;1205;-24
2023/04/19 11:09:33;;;;;;;;;;;;;;;27.90;28.06;100241.19;5096348;28;1076;-24
2023/04/19 11:12:03;;;;;;;;;;;;;;;27.92;28.57;100249.09;5101478;28;1910;-23
2023/04/19 11:14:33;;;;;;;;;;;;;;;27.74;28.75;100250.50;5096436;28;1661;-23
2023/04/19 11:16:59;;;;;;;;;;;;;;;28.34;28.16;100254.50;5096821;28;1023;-25
2023/04/19 11:19:25;;;;;;;;;;;;;;;29.64;26.62;100250.84;5100689;28;1261;-23
2023/04/19 11:21:50;;;;;;;;;;;;;;;30.03;26.19;100257.16;5113614;28;1085;-24
2023/04/19 11:24:17;;;;;;;;;;;;;;;30.29;25.62;100252.72;5112508;28;979;-23
2023/04/19 11:26:43;;;;;;;;;;;;;;;28.13;28.34;100253.56;5107384;28;1111;-23
2023/04/19 11:29:09;;;;;;;;;;;;;;;28.75;27.94;100250.00;5104862;28;1077;-23
2023/04/19 11:31:35;;;;;;;;;;;;;;;30.01;25.98;100258.44;5114500;28;1910;-26
2023/04/19 11:34:03;;;;;;;;;;;;;;;28.70;27.33;100250.63;5116968;28;1117;-23
2023/04/19 11:36:30;;;;;;;;;;;;;;;28.11;28.24;100251.06;5099171;28;913;-23
2023/04/19 11:38:56;;;;;;;;;;;;;;;29.72;26.48;100238.94;5116317;28;1078;-23
2023/04/19 11:41:21;;;;;;;;;;;;;;;30.15;25.28;100259.19;5103445;28;1134;-23
2023/04/19 11:43:47;;;;;;;;;;;;;;;29.35;25.67;100253.78;5114075;28;1533;-23
2023/04/19 11:46:13;;;;;;;;;;;;;;;27.93;28.24;100250.75;5105238;28;1118;-23
2023/04/19 11:48:39;;;;;;;;;;;;;;;29.30;26.55;100264.41;5109888;28;1142;-24
2023/04/19 11:51:04;;;;;;;;;;;;;;;29.99;24.93;100272.22;5105410;28;1992;-23
2023/04/19 11:53:30;;;;;;;;;;;;;;;27.28;28.67;100243.72;5100495;28;1181;-23
2023/04/19 11:55:57;;;;;;;;;;;;;;;27.23;29.44;100238.88;5096255;28;1026;-24
2023/04/19 11:58:43;;;;;;;;;;;;;;;29.48;26.05;100242.09;5080471;28;1458;-23
2023/04/19 12:01:09;;;;;;;;;;;;;;;29.96;25.27;100245.53;5116692;28;1045;-23
2023/04/19 12:03:44;;;;;;;;;;;;;;;29.20;26.71;100244.00;5102463;28;1078;-22
2023/04/19 12:06:12;;;;;;;;;;;;;;;27.22;30.17;100234.53;5103220;28;1094;-23
2023/04/19 12:08:38;;;;;;;;;;;;;;;27.68;29.24;100229.63;5110780;28;1133;-22
2023/04/19 12:11:04;;;;;;;;;;;;;;;27.00;28.40;100235.38;5113669;28;1983;-22
2023/04/19 12:13:30;;;;;;;;;;;;;;;27.51;28.90;100229.94;5112759;28;1232;-24
2023/04/19 12:15:56;;;;;;;;;;;;;;;29.34;26.46;100227.75;5095804;28;1000;-23
2023/04/19 12:18:21;;;;;;;;;;;;;;;29.80;25.61;100230.56;5108461;28;1146;-23
2023/04/19 12:20:47;;;;;;;;;;;;;;;30.09;25.47;100228.38;5102063;28;1097;-23
2023/04/19 12:23:14;;;;;;;;;;;;;;;27.56;29.16;100224.78;5112620;28;1065;-23
2023/04/19 12:25:40;;;;;;;;;;;;;;;27.31;29.82;100224.44;5114856;28;1130;-25
2023/04/19 12:28:05;;;;;;;;;;;;;;;27.24;29.99;100213.56;5117445;28;1070;-22
2023/04/19 12:30:32;;;;;;;;;;;;;;;26.90;30.41;100224.91;5109733;28;1107;-23
2023/04/19 12:32:57;;;;;;;;;;;;;;;28.17;28.10;100216.97;5116923;28;1980;-22
2023/04/19 12:35:24;;;;;;;;;;;;;;;28.13;28.16;100213.00;5109317;28;1000;-23
2023/04/19 12:37:50;;;;;;;;;;;;;;;27.49;29.56;100215.81;5119907;28;1077;-22
2023/04/19 12:40:16;;;;;;;;;;;;;;;28.40;28.14;100214.97;5120379;28;1074;-23
2023/04/19 12:42:41;;;;;;;;;;;;;;;27.99;28.73;100212.94;5103461;28;1161;-24
2023/04/19 12:45:07;;;;;;;;;;;;;;;27.53;29.19;100210.84;5101514;28;1202;-23
2023/04/19 12:47:33;;;;;;;;;;;;;;;28.98;27.31;100207.38;5112703;28;1143;-25
2023/04/19 12:49:58;;;;;;;;;;;;;;;29.80;26.37;100198.03;5109999;28;1050;-22